Terminal Aerodrome Forecast
Issued by NWS

Home | Current Version | Previous Version | Graphics & Text | Print | Product List | Glossary On
Versions: 1 2 3 4 5 6 7 8 9 10 11 12 13 14 15 16 17 18 19 20 21 22
094
FTUS43 KGRB 242335
TAFMTW
TAF
KMTW 242335Z 2500/2524 01010G15KT P6SM BKN010 BKN100
      TEMPO 2500/2504 BKN008
     FM250400 36010KT P6SM SCT015 BKN070
      TEMPO 2504/2508 BKN015
     FM251700 36010KT P6SM FEW020 BKN080
     FM252200 03009KT P6SM BKN080=

USA.gov is the U.S. government's official web portal to all federal, state and local government web resources and services.